createdAt,value
2018-05-14T00:00:53.676Z,8.30
2018-05-14T00:03:20.647Z,8.23
2018-05-14T00:05:47.621Z,8.30
2018-05-14T00:08:14.648Z,7.90
2018-05-14T00:10:41.673Z,8.00
2018-05-14T00:13:08.668Z,8.70
2018-05-14T00:15:35.664Z,8.10
2018-05-14T00:18:02.665Z,7.13
2018-05-14T00:20:30.376Z,8.17
2018-05-14T00:22:57.372Z,7.90
2018-05-14T00:25:24.365Z,7.93
2018-05-14T00:27:51.351Z,8.20
2018-05-14T00:30:19.077Z,8.10
2018-05-14T00:32:46.055Z,7.40
2018-05-14T00:35:13.796Z,8.30
2018-05-14T00:37:40.776Z,7.00
2018-05-14T00:40:08.688Z,9.93
2018-05-14T00:42:35.678Z,7.80
2018-05-14T00:45:03.451Z,7.73
2018-05-14T00:47:30.499Z,8.20
2018-05-14T00:49:57.485Z,8.90
2018-05-14T00:52:24.520Z,8.50
2018-05-14T00:55:09.916Z,8.37
2018-05-14T00:57:37.670Z,8.60
2018-05-14T01:00:05.474Z,8.90
2018-05-14T01:02:33.236Z,7.40
2018-05-14T01:05:00.244Z,6.77
2018-05-14T01:07:27.288Z,7.40
2018-05-14T01:09:54.320Z,7.77
2018-05-14T01:12:21.327Z,7.60
2018-05-14T01:14:48.553Z,7.70
2018-05-14T01:17:15.568Z,7.50
2018-05-14T01:19:42.597Z,7.60
2018-05-14T01:22:10.332Z,7.63
2018-05-14T01:24:38.348Z,7.13
2018-05-14T01:27:05.408Z,7.63
2018-05-14T01:29:32.407Z,7.50
2018-05-14T01:32:00.127Z,7.40
2018-05-14T01:34:27.140Z,9.50
2018-05-14T01:36:54.140Z,7.70
2018-05-14T01:39:21.156Z,6.60
2018-05-14T01:41:48.208Z,6.90
2018-05-14T01:44:15.239Z,7.17
2018-05-14T01:46:42.298Z,8.43
2018-05-14T01:49:09.307Z,7.10
2018-05-14T01:51:36.344Z,6.97
2018-05-14T01:54:04.119Z,7.70
2018-05-14T01:56:31.179Z,7.47
2018-05-14T01:58:59.009Z,7.13
2018-05-14T02:01:25.993Z,9.50
2018-05-14T02:03:53.036Z,7.00
2018-05-14T02:06:20.053Z,9.03
2018-05-14T02:08:47.809Z,6.90
2018-05-14T02:11:15.649Z,7.53
2018-05-14T02:13:43.435Z,7.97
2018-05-14T02:16:11.243Z,7.80
2018-05-14T02:18:38.247Z,6.93
2018-05-14T02:21:05.252Z,7.30
2018-05-14T02:23:32.282Z,7.60
2018-05-14T02:25:59.304Z,8.00
2018-05-14T02:28:27.068Z,7.57
2018-05-14T02:30:54.821Z,7.33
2018-05-14T02:33:21.848Z,8.33
2018-05-14T02:35:48.906Z,7.53
2018-05-14T02:38:16.662Z,7.90
2018-05-14T02:40:43.706Z,8.47
2018-05-14T02:43:10.694Z,6.90
2018-05-14T02:45:37.756Z,8.30
2018-05-14T02:48:04.801Z,6.43
2018-05-14T02:50:31.807Z,8.00
2018-05-14T02:52:58.828Z,6.30
2018-05-14T02:55:25.860Z,9.43
2018-05-14T02:57:52.929Z,8.60
2018-05-14T03:00:19.949Z,7.80
2018-05-14T03:02:46.962Z,7.13
2018-05-14T03:05:14.015Z,6.90
2018-05-14T03:07:41.768Z,8.03
2018-05-14T03:10:09.547Z,7.07
2018-05-14T03:12:37.298Z,7.77
2018-05-14T03:15:07.167Z,7.10
2018-05-14T03:17:34.228Z,7.83
2018-05-14T03:20:01.233Z,6.40
2018-05-14T03:22:28.255Z,7.27
2018-05-14T03:24:56.052Z,6.90
2018-05-14T03:27:23.757Z,6.83
2018-05-14T03:29:51.173Z,8.90
2018-05-14T03:32:18.232Z,7.27
2018-05-14T03:34:45.264Z,8.10
2018-05-14T03:37:12.279Z,7.67
2018-05-14T03:39:40.041Z,7.87
2018-05-14T03:42:07.085Z,8.63
2018-05-14T03:44:34.850Z,7.73
2018-05-14T03:47:02.623Z,7.80
2018-05-14T03:49:30.411Z,8.40
2018-05-14T03:51:57.407Z,8.17
2018-05-14T03:54:24.422Z,8.40
2018-05-14T03:56:51.415Z,8.73
2018-05-14T03:59:36.983Z,8.43
2018-05-14T04:02:31.267Z,7.80
2018-05-14T04:05:17.353Z,8.37
2018-05-14T04:07:44.416Z,9.50
2018-05-14T04:10:11.423Z,9.13
2018-05-14T04:12:38.411Z,11.03
2018-05-14T04:15:05.681Z,8.10
2018-05-14T04:17:32.741Z,8.90
2018-05-14T04:20:00.662Z,8.37
2018-05-14T04:22:27.739Z,9.53
2018-05-14T04:24:54.861Z,8.43
2018-05-14T04:27:21.952Z,8.87
2018-05-14T04:29:49.292Z,8.33
2018-05-14T04:32:16.421Z,8.87
2018-05-14T04:34:44.179Z,7.70
2018-05-14T04:37:11.949Z,8.70
2018-05-14T04:39:40.049Z,8.20
2018-05-14T04:42:07.072Z,9.87
2018-05-14T04:44:34.384Z,9.33
2018-05-14T04:47:01.456Z,10.17
2018-05-14T04:49:28.444Z,9.50
2018-05-14T04:51:55.661Z,10.40
2018-05-14T04:54:23.456Z,9.37
2018-05-14T04:56:51.386Z,11.67
2018-05-14T04:59:18.487Z,9.23
2018-05-14T05:01:45.471Z,11.83
2018-05-14T05:04:12.708Z,9.77
2018-05-14T05:06:39.741Z,12.67
2018-05-14T05:09:06.768Z,11.07
2018-05-14T05:11:33.842Z,9.13
2018-05-14T05:14:01.568Z,11.20
2018-05-14T05:16:28.544Z,10.33
2018-05-14T05:18:55.632Z,12.33
2018-05-14T05:21:22.643Z,9.57
2018-05-14T05:23:49.643Z,10.77
2018-05-14T05:26:16.735Z,9.13
2018-05-14T05:28:43.760Z,10.23
2018-05-14T05:31:10.984Z,10.83
2018-05-14T05:33:37.999Z,9.37
2018-05-14T05:36:05.024Z,9.20
2018-05-14T05:38:32.087Z,9.77
2018-05-14T05:40:59.073Z,11.30
2018-05-14T05:43:26.116Z,11.60
2018-05-14T05:45:53.233Z,12.53
2018-05-14T05:48:20.269Z,11.97
2018-05-14T05:50:47.272Z,11.53
2018-05-14T05:53:14.281Z,12.63
2018-05-14T05:55:41.291Z,11.00
2018-05-14T05:58:09.019Z,11.17
2018-05-14T06:00:36.048Z,10.60
2018-05-14T06:03:03.067Z,12.27
2018-05-14T06:05:30.111Z,11.57
2018-05-14T06:07:58.546Z,11.67
2018-05-14T06:10:26.108Z,11.80
2018-05-14T06:12:53.448Z,13.33
2018-05-14T06:15:24.158Z,11.30
2018-05-14T06:17:51.970Z,13.30
2018-05-14T06:20:21.553Z,11.90
2018-05-14T06:22:50.383Z,11.40
2018-05-14T06:25:17.590Z,15.10
2018-05-14T06:27:45.906Z,16.20
2018-05-14T06:30:15.817Z,15.47
2018-05-14T06:32:44.243Z,16.00
2018-05-14T06:35:11.268Z,18.00
2018-05-14T06:59:53.107Z,16.80
2018-05-14T07:02:20.208Z,16.60
2018-05-14T07:04:47.504Z,13.50
2018-05-14T07:07:14.411Z,13.83
2018-05-14T07:09:41.410Z,13.80
2018-05-14T07:12:08.427Z,14.30
2018-05-14T07:14:35.427Z,14.37
2018-05-14T07:17:03.060Z,12.83
2018-05-14T07:19:30.035Z,12.10
2018-05-14T07:21:57.095Z,12.00
2018-05-14T07:24:24.124Z,12.47
2018-05-14T07:26:51.219Z,13.23
2018-05-14T07:29:18.275Z,14.30
2018-05-14T07:31:45.516Z,13.83
2018-05-14T07:34:12.486Z,14.43
2018-05-14T07:36:39.481Z,12.70
2018-05-14T07:39:06.497Z,15.40
2018-05-14T07:41:34.224Z,16.80
2018-05-14T07:44:01.265Z,15.50
2018-05-14T07:46:28.303Z,14.33
2018-05-14T07:48:55.632Z,13.13
2018-05-14T07:51:22.667Z,15.50
2018-05-14T07:53:49.654Z,14.10
2018-05-14T07:56:16.668Z,12.20
2018-05-14T07:58:43.666Z,13.37
2018-05-14T08:01:10.716Z,12.70
2018-05-14T08:03:37.708Z,12.37
2018-05-14T08:06:04.716Z,12.63
2018-05-14T08:08:31.743Z,12.93
2018-05-14T08:10:59.475Z,11.90
2018-05-14T08:13:27.240Z,12.27
2018-05-14T08:15:54.250Z,11.13
2018-05-14T08:18:21.255Z,9.50
2018-05-14T08:20:49.012Z,9.20
2018-05-14T08:23:16.764Z,10.20
2018-05-14T08:25:43.808Z,10.77
2018-05-14T08:28:10.847Z,9.30
2018-05-14T08:30:38.607Z,8.83
2018-05-14T08:33:05.584Z,7.53
2018-05-14T08:35:33.328Z,9.00
2018-05-14T08:38:01.092Z,5.50
2018-05-14T08:40:28.069Z,4.43
2018-05-14T08:42:55.828Z,4.93
2018-05-14T08:45:22.834Z,3.83
2018-05-14T08:47:49.849Z,4.07
2018-05-14T08:50:16.847Z,4.53
2018-05-14T08:52:44.588Z,5.70
2018-05-14T08:55:11.604Z,4.13
2018-05-14T08:57:38.644Z,4.53
2018-05-14T09:00:06.380Z,5.00
2018-05-14T09:02:34.145Z,4.87
2018-05-14T09:05:01.876Z,5.10
2018-05-14T09:07:28.885Z,5.33
2018-05-14T09:09:55.876Z,5.20
2018-05-14T09:12:22.851Z,4.10
2018-05-14T09:14:50.592Z,3.90
2018-05-14T09:17:17.590Z,3.00
2018-05-14T09:19:44.605Z,3.20
2018-05-14T09:22:12.348Z,2.80
2018-05-14T09:24:39.347Z,3.37
2018-05-14T09:27:07.147Z,3.07
2018-05-14T09:29:34.124Z,2.90
2018-05-14T09:32:01.890Z,2.93
2018-05-14T09:34:28.892Z,3.00
2018-05-14T09:36:55.879Z,2.93
2018-05-14T09:39:23.611Z,2.97
2018-05-14T09:41:50.591Z,3.50
2018-05-14T09:44:18.347Z,3.03
2018-05-14T09:46:45.317Z,3.63
2018-05-14T09:49:12.995Z,3.20
2018-05-14T09:51:40.027Z,3.13
2018-05-14T09:54:07.012Z,3.70
2018-05-14T09:56:34.004Z,5.73
2018-05-14T09:59:01.001Z,5.40
2018-05-14T10:01:28.015Z,3.73
2018-05-14T10:03:54.995Z,3.33
2018-05-14T10:06:21.986Z,3.10
2018-05-14T10:08:48.960Z,4.97
2018-05-14T10:11:15.935Z,3.10
2018-05-14T10:13:42.952Z,3.53
2018-05-14T10:16:09.957Z,3.67
2018-05-14T10:18:36.946Z,3.13
2018-05-14T10:21:03.932Z,3.07
2018-05-14T10:23:30.901Z,2.93
2018-05-14T10:25:57.931Z,2.87
2018-05-14T10:28:24.923Z,3.73
2018-05-14T10:30:51.936Z,2.50
2018-05-14T10:33:19.671Z,2.20
2018-05-14T10:35:46.660Z,1.97
2018-05-14T10:38:14.387Z,2.27
2018-05-14T10:40:41.469Z,2.50
2018-05-14T10:43:08.553Z,3.50
2018-05-14T10:45:35.541Z,3.30
2018-05-14T10:48:02.543Z,2.00
2018-05-14T10:50:29.549Z,3.27
2018-05-14T10:52:57.437Z,2.50
2018-05-14T10:55:24.372Z,3.40
2018-05-14T10:57:51.411Z,2.93
2018-05-14T11:00:19.162Z,2.30
2018-05-14T11:02:46.955Z,2.93
2018-05-14T11:05:13.963Z,5.87
2018-05-14T11:07:41.140Z,3.13
2018-05-14T11:10:08.867Z,2.97
2018-05-14T11:12:35.884Z,3.40
2018-05-14T11:15:02.919Z,4.30
2018-05-14T11:17:29.912Z,3.73
2018-05-14T11:19:56.911Z,4.50
2018-05-14T11:22:23.892Z,4.40
2018-05-14T11:24:50.883Z,3.60
2018-05-14T11:27:18.631Z,4.33
2018-05-14T11:29:45.615Z,3.63
2018-05-14T11:32:12.629Z,4.43
2018-05-14T11:34:40.683Z,3.50
2018-05-14T11:37:07.806Z,3.83
2018-05-14T11:39:34.794Z,5.07
2018-05-14T11:42:01.763Z,4.87
2018-05-14T11:44:28.817Z,3.80
2018-05-14T11:46:55.815Z,4.80
2018-05-14T11:49:22.823Z,4.30
2018-05-14T11:51:49.997Z,5.67
2018-05-14T11:54:17.023Z,5.10
2018-05-14T11:56:44.038Z,6.10
2018-05-14T11:59:11.758Z,5.73
2018-05-14T12:01:38.791Z,5.40
2018-05-14T12:04:05.764Z,5.97
2018-05-14T12:06:32.748Z,5.77
2018-05-14T12:08:59.743Z,5.20
2018-05-14T12:11:26.755Z,4.80
2018-05-14T12:13:53.732Z,4.80
2018-05-14T12:16:20.761Z,4.93
2018-05-14T12:18:47.695Z,4.50
2018-05-14T12:21:14.719Z,4.43
2018-05-14T12:23:42.475Z,5.50
2018-05-14T12:26:10.227Z,5.60
2018-05-14T12:28:37.204Z,6.43
2018-05-14T12:31:04.369Z,5.17
2018-05-14T12:33:32.092Z,5.17
2018-05-14T12:35:59.072Z,4.80
2018-05-14T12:38:26.077Z,5.23
2018-05-14T12:40:53.068Z,4.20
2018-05-14T12:43:20.300Z,5.03
2018-05-14T12:45:48.019Z,3.97
2018-05-14T12:48:15.016Z,5.17
2018-05-14T12:50:42.723Z,3.50
2018-05-14T12:53:09.727Z,4.97
2018-05-14T12:55:36.727Z,4.57
2018-05-14T12:58:03.720Z,4.47
2018-05-14T13:00:30.731Z,5.07
2018-05-14T13:02:57.729Z,5.83
2018-05-14T13:05:24.735Z,5.13
2018-05-14T13:07:52.495Z,4.40
2018-05-14T13:10:19.487Z,4.90
2018-05-14T13:12:46.508Z,5.33
2018-05-14T13:15:14.219Z,4.83
2018-05-14T13:17:41.212Z,4.77
2018-05-14T13:20:08.980Z,6.10
2018-05-14T13:22:36.717Z,6.77
2018-05-14T13:25:03.746Z,5.30
2018-05-14T13:27:30.725Z,4.10
2018-05-14T13:29:58.452Z,4.43
2018-05-14T13:32:25.727Z,4.10
2018-05-14T13:34:53.485Z,4.50
2018-05-14T13:37:20.627Z,4.27
2018-05-14T13:39:48.400Z,4.37
2018-05-14T13:42:15.365Z,4.00
2018-05-14T13:44:43.124Z,3.67
2018-05-14T13:47:10.097Z,3.70
2018-05-14T13:49:37.144Z,4.47
2018-05-14T13:52:04.872Z,5.27
2018-05-14T13:54:31.859Z,3.90
2018-05-14T13:56:59.583Z,4.20
2018-05-14T13:59:26.571Z,4.40
2018-05-14T14:01:53.598Z,3.67
2018-05-14T14:04:20.587Z,3.77
2018-05-14T14:06:47.562Z,3.57
2018-05-14T14:09:15.345Z,4.83
2018-05-14T14:11:43.204Z,4.33
2018-05-14T14:14:10.233Z,3.70
2018-05-14T14:16:37.203Z,4.27
2018-05-14T14:19:04.210Z,4.50
2018-05-14T14:21:31.208Z,4.30
2018-05-14T14:23:58.425Z,4.20
2018-05-14T14:26:25.440Z,4.70
2018-05-14T14:28:52.456Z,5.10
2018-05-14T14:31:19.448Z,4.70
2018-05-14T14:33:46.463Z,5.00
2018-05-14T14:36:14.288Z,4.67
2018-05-14T14:38:41.199Z,4.50
2018-05-14T14:41:08.191Z,4.50
2018-05-14T14:43:35.175Z,4.60
2018-05-14T14:46:02.240Z,4.73
2018-05-14T14:48:29.231Z,4.90
2018-05-14T14:50:57.003Z,4.87
2018-05-14T14:53:24.058Z,4.73
2018-05-14T14:55:51.071Z,5.57
2018-05-14T14:58:18.065Z,5.23
2018-05-14T15:00:45.096Z,6.00
2018-05-14T15:03:12.219Z,5.20
2018-05-14T15:05:39.974Z,5.40
2018-05-14T15:08:06.973Z,5.20
2018-05-14T15:10:45.600Z,6.50
2018-05-14T15:13:13.644Z,5.03
2018-05-14T15:15:41.509Z,5.73
2018-05-14T15:18:09.343Z,5.00
2018-05-14T15:20:36.323Z,6.00
2018-05-14T15:23:03.404Z,5.20
2018-05-14T15:25:30.358Z,6.90
2018-05-14T15:27:57.377Z,6.63
2018-05-14T15:30:24.440Z,6.17
2018-05-14T15:32:51.443Z,6.67
2018-05-14T15:35:18.641Z,4.97
2018-05-14T15:37:45.624Z,7.13
2018-05-14T15:40:12.594Z,6.43
2018-05-14T15:42:40.864Z,6.30
2018-05-14T15:45:07.935Z,5.43
2018-05-14T15:47:36.169Z,5.90
2018-05-14T15:50:03.336Z,6.07
2018-05-14T15:52:30.349Z,6.87
2018-05-14T15:54:57.355Z,8.53
2018-05-14T15:57:25.080Z,6.73
2018-05-14T15:59:52.099Z,7.93
2018-05-14T16:02:19.672Z,7.20
2018-05-14T16:04:53.639Z,7.03
2018-05-14T16:07:20.635Z,8.17
2018-05-14T16:09:48.052Z,7.60
2018-05-14T16:12:16.052Z,8.10
2018-05-14T16:14:43.272Z,8.17
2018-05-14T16:17:12.454Z,7.83
2018-05-14T16:19:40.191Z,7.40
2018-05-14T16:22:07.512Z,9.33
2018-05-14T16:24:34.716Z,7.40
2018-05-14T16:27:03.481Z,9.17
2018-05-14T16:29:30.576Z,7.10
2018-05-14T16:31:57.707Z,8.37
2018-05-14T16:34:24.699Z,9.20
2018-05-14T16:36:51.848Z,8.63
2018-05-14T16:39:19.619Z,8.83
2018-05-14T16:41:49.755Z,10.77
2018-05-14T16:46:58.253Z,9.33
2018-05-14T16:49:32.206Z,10.97
2018-05-14T16:52:00.693Z,9.77
2018-05-14T16:54:28.869Z,9.53
2018-05-14T16:56:59.419Z,9.10
2018-05-14T17:05:47.296Z,9.70
2018-05-14T17:08:21.616Z,9.13
2018-05-14T17:10:52.147Z,9.50
2018-05-14T17:13:32.081Z,8.83
2018-05-14T17:15:59.556Z,12.23
2018-05-14T17:18:32.348Z,9.63
2018-05-14T17:20:59.563Z,10.00
2018-05-14T17:23:26.764Z,11.30
2018-05-14T17:25:53.760Z,9.90
2018-05-14T17:28:20.718Z,11.83
2018-05-14T17:30:48.482Z,11.40
2018-05-14T17:33:16.226Z,11.07
2018-05-14T17:35:44.188Z,11.53
2018-05-14T17:38:11.452Z,10.80
2018-05-14T17:40:38.453Z,11.03
2018-05-14T17:43:05.459Z,12.00
2018-05-14T17:45:32.502Z,10.70
2018-05-14T17:48:00.256Z,12.37
2018-05-14T17:50:27.244Z,11.87
2018-05-14T17:52:56.119Z,14.00
2018-05-14T17:55:23.148Z,13.00
2018-05-14T17:57:50.891Z,11.20
2018-05-14T18:00:18.648Z,13.40
2018-05-14T18:02:45.740Z,12.20
2018-05-14T18:05:12.818Z,20.73
2018-05-14T18:07:40.484Z,10.90
2018-05-14T18:10:07.523Z,9.93
2018-05-14T18:12:34.569Z,11.53
2018-05-14T18:15:01.966Z,9.97
2018-05-14T18:17:29.231Z,10.17
2018-05-14T18:20:02.337Z,10.93
2018-05-14T18:22:30.444Z,8.93
2018-05-14T18:25:03.687Z,10.73
2018-05-14T18:27:30.917Z,9.40
2018-05-14T18:30:04.308Z,10.00
2018-05-14T18:32:34.943Z,10.27
2018-05-14T18:35:07.975Z,11.77
2018-05-14T18:37:36.265Z,10.23
2018-05-14T18:40:03.492Z,10.87
2018-05-14T18:42:30.560Z,8.97
2018-05-14T18:44:57.949Z,8.90
2018-05-14T18:47:25.925Z,10.60
2018-05-14T18:49:53.308Z,9.50
2018-05-14T18:52:20.544Z,10.20
2018-05-14T18:54:47.963Z,9.80
2018-05-14T18:57:21.257Z,11.13
2018-05-14T18:59:48.308Z,9.67
2018-05-14T19:02:15.283Z,10.90
2018-05-14T19:04:42.655Z,10.33
2018-05-14T19:07:10.536Z,10.87
2018-05-14T19:09:37.705Z,10.03
2018-05-14T19:12:04.755Z,11.00
2018-05-14T19:14:32.719Z,10.30
2018-05-14T19:17:05.859Z,12.30
2018-05-14T19:19:32.896Z,9.40
2018-05-14T19:22:00.375Z,11.50
2018-05-14T19:24:28.159Z,9.67
2018-05-14T19:26:56.729Z,10.20
2018-05-14T19:29:29.810Z,10.63
2018-05-14T19:31:57.049Z,10.60
2018-05-14T19:34:30.788Z,10.63
2018-05-14T19:36:58.891Z,9.73
2018-05-14T19:39:32.352Z,10.00
2018-05-14T19:41:59.689Z,10.70
2018-05-14T19:44:26.864Z,9.73
2018-05-14T19:46:53.960Z,10.03
2018-05-14T19:49:21.909Z,9.57
2018-05-14T19:51:49.072Z,10.57
2018-05-14T19:54:17.188Z,11.67
2018-05-14T19:56:44.991Z,11.83
2018-05-14T19:59:12.011Z,10.37
2018-05-14T20:01:39.798Z,11.17
2018-05-14T20:04:06.807Z,11.73
2018-05-14T20:06:34.041Z,11.17
2018-05-14T20:09:01.874Z,12.00
2018-05-14T20:11:28.904Z,10.17
2018-05-14T20:13:56.194Z,12.03
2018-05-14T20:16:24.288Z,12.63
2018-05-14T20:18:52.211Z,11.97
2018-05-14T20:21:19.368Z,13.40
2018-05-14T20:23:46.665Z,11.97
2018-05-14T20:26:13.892Z,10.67
2018-05-14T20:28:42.529Z,12.77
2018-05-14T20:31:09.592Z,12.60
2018-05-14T20:33:36.604Z,10.13
2018-05-14T20:36:03.679Z,11.23
2018-05-14T20:38:30.708Z,9.87
2018-05-14T20:40:58.493Z,11.60
2018-05-14T20:43:25.496Z,11.23
2018-05-14T20:45:52.527Z,10.10
2018-05-14T20:48:19.536Z,9.60
2018-05-14T20:50:46.608Z,9.57
2018-05-14T20:53:13.580Z,10.50
2018-05-14T20:55:40.579Z,11.60
2018-05-14T20:58:07.623Z,11.53
2018-05-14T21:00:34.628Z,10.90
2018-05-14T21:03:01.594Z,10.50
2018-05-14T21:05:28.576Z,11.00
2018-05-14T21:07:56.413Z,9.47
2018-05-14T21:10:23.447Z,9.87
2018-05-14T21:12:50.536Z,9.13
2018-05-14T21:15:17.555Z,9.50
2018-05-14T21:17:44.557Z,9.87
2018-05-14T21:20:11.587Z,10.40
2018-05-14T21:22:39.438Z,10.40
2018-05-14T21:25:06.440Z,10.77
2018-05-14T21:27:34.215Z,10.90
2018-05-14T21:30:01.980Z,11.33
2018-05-14T21:32:29.065Z,11.03
2018-05-14T21:34:56.047Z,10.40
2018-05-14T21:37:23.072Z,10.73
2018-05-14T21:39:50.090Z,10.67
2018-05-14T21:42:17.136Z,11.97
2018-05-14T21:44:44.163Z,11.40
2018-05-14T21:47:11.915Z,9.93
2018-05-14T21:49:39.657Z,12.83
2018-05-14T21:52:06.659Z,11.40
2018-05-14T21:54:33.711Z,11.53
2018-05-14T21:57:00.710Z,12.50
2018-05-14T21:59:27.707Z,11.00
2018-05-14T22:01:54.848Z,12.43
2018-05-14T22:04:21.787Z,9.90
2018-05-14T22:06:55.360Z,10.10
2018-05-14T22:09:22.354Z,9.97
2018-05-14T22:11:49.380Z,10.40
2018-05-14T22:14:16.392Z,10.33
2018-05-14T22:16:43.384Z,8.63
2018-05-14T22:19:10.387Z,9.03
2018-05-14T22:21:37.479Z,8.50
2018-05-14T22:24:05.211Z,8.57
2018-05-14T22:26:33.085Z,9.30
2018-05-14T22:29:00.029Z,9.10
2018-05-14T22:31:28.040Z,9.53
2018-05-14T22:33:55.102Z,9.20
2018-05-14T22:36:22.867Z,9.83
2018-05-14T22:38:49.881Z,7.97
2018-05-14T22:41:16.924Z,7.80
2018-05-14T22:43:43.948Z,10.33
2018-05-14T22:46:11.700Z,8.20
2018-05-14T22:48:39.455Z,9.57
2018-05-14T22:51:06.569Z,8.17
2018-05-14T22:56:08.005Z,8.80
2018-05-14T22:58:35.012Z,8.83
2018-05-14T23:01:02.872Z,9.83
2018-05-14T23:03:29.848Z,9.27
2018-05-14T23:05:57.576Z,9.80
2018-05-14T23:08:24.620Z,10.00
2018-05-14T23:10:51.628Z,8.80
2018-05-14T23:13:18.640Z,8.47
2018-05-14T23:15:46.380Z,9.23
2018-05-14T23:18:13.375Z,10.77
2018-05-14T23:20:40.347Z,9.23
2018-05-14T23:23:07.341Z,9.07
2018-05-14T23:25:35.091Z,8.20
2018-05-14T23:28:02.096Z,9.20
2018-05-14T23:30:29.114Z,8.63
2018-05-14T23:32:56.919Z,7.73
2018-05-14T23:35:23.980Z,9.30
2018-05-14T23:37:50.987Z,8.17
2018-05-14T23:40:18.739Z,8.93
2018-05-14T23:42:45.819Z,8.30
2018-05-14T23:45:12.880Z,7.93
2018-05-14T23:47:39.908Z,9.13
2018-05-14T23:50:06.924Z,9.30
2018-05-14T23:52:34.728Z,7.87
2018-05-14T23:55:01.744Z,8.00
2018-05-14T23:57:29.485Z,7.30
2018-05-14T23:59:56.488Z,8.00
